createdAt,value
2023-12-21T00:00:24.622Z,20.45
2023-12-21T00:02:55.121Z,15.47
2023-12-21T00:05:25.581Z,15.53
2023-12-21T00:07:56.188Z,10.90
2023-12-21T00:10:26.770Z,13.33
2023-12-21T00:12:57.456Z,12.77
2023-12-21T00:15:27.938Z,13.37
2023-12-21T00:17:58.522Z,14.17
2023-12-21T00:20:29.011Z,12.70
2023-12-21T00:22:59.700Z,11.93
2023-12-21T00:25:30.466Z,10.00
2023-12-21T00:28:01.910Z,9.48
2023-12-21T00:30:32.425Z,9.77
2023-12-21T00:33:03.254Z,10.77
2023-12-21T00:35:33.768Z,8.95
2023-12-21T00:38:04.827Z,10.80
2023-12-21T00:40:35.405Z,12.52
2023-12-21T00:43:06.202Z,10.77
2023-12-21T00:45:36.883Z,9.17
2023-12-21T00:48:08.015Z,9.23
2023-12-21T00:50:38.631Z,7.70
2023-12-21T00:53:09.291Z,7.03
2023-12-21T00:55:40.026Z,9.40
2023-12-21T00:58:10.806Z,8.57
2023-12-21T01:00:41.452Z,9.90
2023-12-21T01:03:12.219Z,7.47
2023-12-21T01:05:42.951Z,6.80
2023-12-21T01:08:13.635Z,8.80
2023-12-21T01:10:44.218Z,10.57
2023-12-21T01:13:14.925Z,7.65
2023-12-21T01:15:45.444Z,6.03
2023-12-21T01:18:16.183Z,6.77
2023-12-21T01:20:46.769Z,4.73
2023-12-21T01:23:17.473Z,4.15
2023-12-21T01:25:48.015Z,8.87
2023-12-21T01:28:19.130Z,6.00
2023-12-21T01:30:49.665Z,7.47
2023-12-21T01:33:20.384Z,5.20
2023-12-21T01:35:51.103Z,7.32
2023-12-21T01:38:21.585Z,5.77
2023-12-21T01:40:52.101Z,4.67
2023-12-21T01:43:22.808Z,7.67
2023-12-21T01:45:53.311Z,6.13
2023-12-21T01:48:25.427Z,7.22
2023-12-21T01:50:56.688Z,5.63
2023-12-21T01:53:27.531Z,6.50
2023-12-21T01:55:59.078Z,6.25
2023-12-21T01:58:29.844Z,5.63
2023-12-21T02:01:02.466Z,5.97
2023-12-21T02:03:33.839Z,4.15
2023-12-21T02:06:04.391Z,4.97
2023-12-21T02:08:35.216Z,5.37
2023-12-21T02:11:41.138Z,3.55
2023-12-21T02:14:11.735Z,4.45
2023-12-21T02:16:42.178Z,5.30
2023-12-21T02:19:17.682Z,7.63
2023-12-21T02:21:50.046Z,5.90
2023-12-21T02:24:21.407Z,5.60
2023-12-21T02:26:52.159Z,4.03
2023-12-21T02:29:22.822Z,7.35
2023-12-21T02:31:53.481Z,3.00
2023-12-21T02:34:24.308Z,5.53
2023-12-21T02:36:54.909Z,3.80
2023-12-21T02:39:25.462Z,6.87
2023-12-21T02:42:47.285Z,5.30
2023-12-21T02:48:02.383Z,4.35
2023-12-21T02:50:37.098Z,3.95
2023-12-21T02:53:08.495Z,4.87
2023-12-21T02:58:09.922Z,4.53
2023-12-21T03:00:40.531Z,7.03
2023-12-21T03:03:11.027Z,4.83
2023-12-21T03:05:41.755Z,4.90
2023-12-21T03:08:12.285Z,4.20
2023-12-21T03:10:42.692Z,4.63
2023-12-21T03:13:13.472Z,4.40
2023-12-21T03:15:44.167Z,6.53
2023-12-21T03:18:15.788Z,5.33
2023-12-21T03:20:46.480Z,4.07
2023-12-21T03:23:18.096Z,4.10
2023-12-21T03:25:48.670Z,2.80
2023-12-21T03:28:19.331Z,5.23
2023-12-21T03:30:49.901Z,5.57
2023-12-21T03:33:20.469Z,5.00
2023-12-21T03:35:50.987Z,2.87
2023-12-21T03:38:21.523Z,2.97
2023-12-21T03:40:52.179Z,4.27
2023-12-21T03:43:22.815Z,5.53
2023-12-21T03:45:53.337Z,4.50
2023-12-21T03:48:23.851Z,2.92
2023-12-21T03:50:54.481Z,4.50
2023-12-21T03:53:24.971Z,3.80
2023-12-21T03:55:55.613Z,6.37
2023-12-21T03:58:26.183Z,4.33
2023-12-21T04:00:56.907Z,7.17
2023-12-21T04:03:27.478Z,5.37
2023-12-21T04:05:58.279Z,4.47
2023-12-21T04:08:28.908Z,2.95
2023-12-21T04:10:59.411Z,5.70
2023-12-21T04:13:29.825Z,4.78
2023-12-21T04:16:00.422Z,4.03
2023-12-21T04:18:32.951Z,7.37
2023-12-21T04:21:03.700Z,4.35
2023-12-21T04:23:34.201Z,4.13
2023-12-21T04:26:04.710Z,3.53
2023-12-21T04:28:35.172Z,3.23
2023-12-21T04:31:05.891Z,5.17
2023-12-21T04:33:36.488Z,3.83
2023-12-21T04:36:07.206Z,6.47
2023-12-21T04:38:37.765Z,5.03
2023-12-21T04:41:08.633Z,5.80
2023-12-21T04:43:39.264Z,3.33
2023-12-21T04:46:10.094Z,2.73
2023-12-21T04:48:40.773Z,5.60
2023-12-21T04:51:19.308Z,4.47
2023-12-21T04:53:50.265Z,3.83
2023-12-21T04:56:20.993Z,3.38
2023-12-21T04:58:51.575Z,5.13
2023-12-21T05:01:22.328Z,3.42
2023-12-21T05:03:53.910Z,2.97
2023-12-21T05:06:24.402Z,5.00
2023-12-21T05:08:55.439Z,5.07
2023-12-21T05:11:26.113Z,3.72
2023-12-21T05:13:56.767Z,4.60
2023-12-21T05:16:27.347Z,4.73
2023-12-21T05:18:57.922Z,3.60
2023-12-21T05:21:28.420Z,4.37
2023-12-21T05:23:58.697Z,4.93
2023-12-21T05:26:28.986Z,3.92
2023-12-21T05:29:01.228Z,4.33
2023-12-21T05:31:32.123Z,4.97
2023-12-21T05:34:02.735Z,6.03
2023-12-21T05:36:33.244Z,4.53
2023-12-21T05:39:04.802Z,5.63
2023-12-21T05:41:47.610Z,3.33
2023-12-21T05:44:18.306Z,3.73
2023-12-21T05:46:48.982Z,4.27
2023-12-21T05:49:19.835Z,4.03
2023-12-21T05:51:52.005Z,6.20
2023-12-21T05:54:22.502Z,6.07
2023-12-21T05:56:53.426Z,4.53
2023-12-21T05:59:24.182Z,3.78
2023-12-21T06:01:54.880Z,6.57
2023-12-21T06:04:25.596Z,3.00
2023-12-21T06:06:56.215Z,3.22
2023-12-21T06:09:26.938Z,7.43
2023-12-21T06:11:59.352Z,6.03
2023-12-21T06:14:29.947Z,3.83
2023-12-21T06:17:00.443Z,7.67
2023-12-21T06:19:31.144Z,8.50
2023-12-21T06:22:01.859Z,3.73
2023-12-21T06:24:32.382Z,6.73
2023-12-21T06:27:02.847Z,2.90
2023-12-21T06:29:33.547Z,4.10
2023-12-21T06:32:03.959Z,3.70
2023-12-21T06:34:34.653Z,3.87
2023-12-21T06:37:08.309Z,2.63
2023-12-21T06:39:38.881Z,3.80
2023-12-21T06:42:09.764Z,3.93
2023-12-21T06:44:40.566Z,4.32
2023-12-21T06:47:11.044Z,6.30
2023-12-21T06:49:41.803Z,3.05
2023-12-21T06:52:12.312Z,2.80
2023-12-21T06:54:43.227Z,2.60
2023-12-21T06:57:14.126Z,5.03
2023-12-21T06:59:44.899Z,4.32
2023-12-21T07:02:15.377Z,3.92
2023-12-21T07:04:45.931Z,3.07
2023-12-21T07:07:17.480Z,5.27
2023-12-21T07:09:48.035Z,6.70
2023-12-21T07:12:18.671Z,5.07
2023-12-21T07:14:49.260Z,4.40
2023-12-21T07:17:19.937Z,4.77
2023-12-21T07:19:50.551Z,6.28
2023-12-21T07:22:21.071Z,3.17
2023-12-21T07:24:51.606Z,4.00
2023-12-21T07:27:22.053Z,4.40
2023-12-21T07:29:53.258Z,6.78
2023-12-21T07:34:53.998Z,5.40
2023-12-21T07:37:26.012Z,8.32
2023-12-21T07:39:56.625Z,6.20
2023-12-21T07:42:27.200Z,10.80
2023-12-21T07:44:57.674Z,8.00
2023-12-21T07:47:28.059Z,7.43
2023-12-21T07:49:59.014Z,6.47
2023-12-21T07:52:29.586Z,10.32
2023-12-21T07:55:00.130Z,9.80
2023-12-21T07:57:30.650Z,11.17
2023-12-21T08:00:01.595Z,11.70
2023-12-21T08:02:43.863Z,10.45
2023-12-21T08:05:18.331Z,7.57
2023-12-21T08:07:49.114Z,9.00
2023-12-21T08:10:20.352Z,12.13
2023-12-21T08:12:51.062Z,8.68
2023-12-21T08:15:21.528Z,8.13
2023-12-21T08:17:55.644Z,9.93
2023-12-21T08:20:27.202Z,7.70
2023-12-21T08:22:57.980Z,8.05
2023-12-21T08:25:28.643Z,7.35
2023-12-21T08:27:59.495Z,6.85
2023-12-21T08:30:30.116Z,7.07
2023-12-21T08:33:01.001Z,7.88
2023-12-21T08:35:31.428Z,7.10
2023-12-21T08:38:04.147Z,9.63
2023-12-21T08:40:34.909Z,12.32
2023-12-21T08:43:06.135Z,13.65
2023-12-21T08:45:36.738Z,8.85
2023-12-21T08:48:07.622Z,17.15
2023-12-21T08:50:38.251Z,9.63
2023-12-21T08:53:09.013Z,10.40
2023-12-21T08:55:39.864Z,9.67
2023-12-21T08:58:11.602Z,11.00
2023-12-21T09:00:42.182Z,8.65
2023-12-21T09:03:13.140Z,9.02
2023-12-21T09:05:44.096Z,10.18
2023-12-21T09:08:14.782Z,5.53
2023-12-21T09:10:45.492Z,7.17
2023-12-21T09:13:16.324Z,7.60
2023-12-21T09:15:47.136Z,7.70
2023-12-21T09:18:17.828Z,10.27
2023-12-21T09:20:48.375Z,10.93
2023-12-21T09:23:18.830Z,6.83
2023-12-21T09:25:52.318Z,10.27
2023-12-21T09:28:23.814Z,11.40
2023-12-21T09:30:54.384Z,10.43
2023-12-21T09:33:25.006Z,10.07
2023-12-21T09:35:58.297Z,10.70
2023-12-21T09:38:28.999Z,11.23
2023-12-21T09:41:01.015Z,9.77
2023-12-21T09:43:31.913Z,11.30
2023-12-21T09:46:05.266Z,7.55
2023-12-21T09:48:36.678Z,9.35
2023-12-21T09:51:09.127Z,8.73
2023-12-21T09:53:40.848Z,7.88
2023-12-21T09:56:11.869Z,8.15
2023-12-21T09:58:43.614Z,6.72
2023-12-21T10:01:14.468Z,8.85
2023-12-21T10:03:46.453Z,6.90
2023-12-21T10:06:17.435Z,13.40
2023-12-21T10:08:50.168Z,11.32
2023-12-21T10:11:21.636Z,6.55
2023-12-21T10:13:52.762Z,8.10
2023-12-21T10:18:54.125Z,10.60
2023-12-21T10:21:26.320Z,7.78
2023-12-21T10:23:57.658Z,7.00
2023-12-21T10:26:28.204Z,10.13
2023-12-21T10:28:58.624Z,8.10
2023-12-21T10:31:30.411Z,8.70
2023-12-21T10:34:30.101Z,9.02
2023-12-21T10:37:04.621Z,8.10
2023-12-21T10:39:35.554Z,5.57
2023-12-21T10:42:06.541Z,7.07
2023-12-21T10:44:37.179Z,8.40
2023-12-21T10:47:08.268Z,10.07
2023-12-21T10:49:40.863Z,9.52
2023-12-21T10:52:13.544Z,7.88
2023-12-21T10:54:46.378Z,9.00
2023-12-21T10:57:18.032Z,10.40
2023-12-21T10:59:51.813Z,11.35
2023-12-21T11:02:23.542Z,10.13
2023-12-21T11:04:56.074Z,8.80
2023-12-21T11:07:29.108Z,14.57
2023-12-21T11:10:00.213Z,10.07
2023-12-21T11:12:30.760Z,11.73
2023-12-21T11:15:01.566Z,9.30
2023-12-21T11:17:32.659Z,9.80
2023-12-21T11:20:04.705Z,13.35
2023-12-21T11:22:40.596Z,14.80
2023-12-21T11:25:15.763Z,14.45
2023-12-21T11:27:46.691Z,12.20
2023-12-21T11:30:18.597Z,14.88
2023-12-21T11:32:52.843Z,12.65
2023-12-21T11:35:27.983Z,13.93
2023-12-21T11:38:00.456Z,13.32
2023-12-21T11:40:33.321Z,11.85
2023-12-21T11:43:06.187Z,12.15
2023-12-21T11:45:38.559Z,10.80
2023-12-21T11:48:09.816Z,12.60
2023-12-21T11:50:40.520Z,10.88
2023-12-21T11:53:15.580Z,14.43
2023-12-21T11:55:48.077Z,14.55
2023-12-21T11:58:22.441Z,13.45
2023-12-21T12:00:55.142Z,15.00
2023-12-21T12:03:29.072Z,13.55
2023-12-21T12:06:07.254Z,14.40
2023-12-21T12:08:38.061Z,11.90
2023-12-21T12:11:08.640Z,16.20
2023-12-21T12:13:39.140Z,13.70
2023-12-21T12:16:10.794Z,12.93
2023-12-21T12:18:41.407Z,12.77
2023-12-21T12:21:12.321Z,10.30
2023-12-21T12:23:45.095Z,13.23
2023-12-21T12:26:17.280Z,13.35
2023-12-21T12:28:50.716Z,14.30
2023-12-21T12:31:22.461Z,16.05
2023-12-21T12:33:53.307Z,17.17
2023-12-21T12:36:24.140Z,13.18
2023-12-21T12:38:59.264Z,14.43
2023-12-21T12:41:29.991Z,12.98
2023-12-21T12:44:00.609Z,15.35
2023-12-21T12:46:34.553Z,13.33
2023-12-21T12:49:05.431Z,12.32
2023-12-21T12:51:36.133Z,15.02
2023-12-21T12:54:07.405Z,16.30
2023-12-21T12:56:49.146Z,18.23
2023-12-21T12:59:23.077Z,15.98
2023-12-21T13:01:53.724Z,16.95
2023-12-21T13:04:24.764Z,13.43
2023-12-21T13:06:57.348Z,17.33
2023-12-21T13:09:28.378Z,15.95
2023-12-21T13:11:58.959Z,13.70
2023-12-21T13:14:29.576Z,14.10
2023-12-21T13:16:59.897Z,15.10
2023-12-21T13:19:31.399Z,15.87
2023-12-21T13:22:01.980Z,16.38
2023-12-21T13:24:32.748Z,15.97
2023-12-21T13:27:04.706Z,17.30
2023-12-21T13:29:35.414Z,19.15
2023-12-21T13:32:06.150Z,14.67
2023-12-21T13:34:37.126Z,15.25
2023-12-21T13:37:07.809Z,21.30
2023-12-21T13:39:38.551Z,17.95
2023-12-21T13:42:12.271Z,21.30
2023-12-21T13:44:43.223Z,16.17
2023-12-21T13:47:13.787Z,15.55
2023-12-21T13:49:44.658Z,14.00
2023-12-21T13:52:15.392Z,16.13
2023-12-21T13:56:09.724Z,15.85
2023-12-21T13:58:40.746Z,18.48
2023-12-21T14:04:02.872Z,18.38
2023-12-21T14:07:01.046Z,19.05
2023-12-21T14:09:33.438Z,17.38
2023-12-21T14:14:39.536Z,17.02
2023-12-21T14:17:10.370Z,17.43
2023-12-21T14:19:41.097Z,16.87
2023-12-21T14:22:11.953Z,17.13
2023-12-21T14:24:42.710Z,15.57
2023-12-21T14:27:13.315Z,15.00
2023-12-21T14:29:45.318Z,14.47
2023-12-21T14:32:16.039Z,19.95
2023-12-21T14:34:46.585Z,16.77
2023-12-21T14:37:17.958Z,16.53
2023-12-21T14:39:48.448Z,18.58
2023-12-21T14:42:18.974Z,14.40
2023-12-21T14:44:51.362Z,22.43
2023-12-21T14:47:25.094Z,16.75
2023-12-21T14:49:55.801Z,17.17
2023-12-21T14:52:26.181Z,19.70
2023-12-21T14:54:56.679Z,18.70
2023-12-21T14:57:27.059Z,15.90
2023-12-21T14:59:57.878Z,15.43
2023-12-21T15:02:28.640Z,15.77
2023-12-21T15:04:59.310Z,13.70
2023-12-21T15:07:29.852Z,14.20
2023-12-21T15:10:04.965Z,13.77
2023-12-21T15:12:38.170Z,14.82
2023-12-21T15:15:09.190Z,13.60
2023-12-21T15:17:40.129Z,15.48
2023-12-21T15:20:11.321Z,14.95
2023-12-21T15:22:42.090Z,17.10
2023-12-21T15:25:12.425Z,13.63
2023-12-21T15:27:43.020Z,13.47
2023-12-21T15:30:14.031Z,13.67
2023-12-21T15:32:44.755Z,18.75
2023-12-21T15:35:15.442Z,12.17
2023-12-21T15:37:47.434Z,14.40
2023-12-21T15:40:18.682Z,12.85
2023-12-21T15:42:49.707Z,14.38
2023-12-21T15:45:20.581Z,11.60
2023-12-21T15:47:52.614Z,12.82
2023-12-21T15:50:23.270Z,12.00
2023-12-21T15:52:54.110Z,12.45
2023-12-21T15:55:25.720Z,13.93
2023-12-21T15:57:56.389Z,15.20
2023-12-21T16:00:26.852Z,12.37
2023-12-21T16:02:57.428Z,11.02
2023-12-21T16:05:28.051Z,13.10
2023-12-21T16:07:58.686Z,12.50
2023-12-21T16:10:29.630Z,11.23
2023-12-21T16:13:00.365Z,11.25
2023-12-21T16:15:31.277Z,13.60
2023-12-21T16:18:01.978Z,12.98
2023-12-21T16:20:32.543Z,13.68
2023-12-21T16:23:05.102Z,13.93
2023-12-21T16:25:36.001Z,13.95
2023-12-21T16:28:09.324Z,12.80
2023-12-21T16:30:40.102Z,14.68
2023-12-21T16:33:10.605Z,10.90
2023-12-21T16:35:41.251Z,11.47
2023-12-21T16:38:13.809Z,13.27
2023-12-21T16:40:44.379Z,11.68
2023-12-21T16:43:15.384Z,11.23
2023-12-21T16:45:46.033Z,11.15
2023-12-21T16:48:17.056Z,11.27
2023-12-21T16:50:52.662Z,10.85
2023-12-21T16:53:23.145Z,13.85
2023-12-21T16:55:53.898Z,13.57
2023-12-21T16:58:26.583Z,14.43
2023-12-21T17:00:57.250Z,10.25
2023-12-21T17:03:27.941Z,9.90
2023-12-21T17:05:59.489Z,11.40
2023-12-21T17:08:29.928Z,10.85
2023-12-21T17:11:00.720Z,10.13
2023-12-21T17:13:31.263Z,11.13
2023-12-21T17:16:03.594Z,13.07
2023-12-21T17:18:34.233Z,11.38
2023-12-21T17:21:04.971Z,15.15
2023-12-21T17:23:35.395Z,11.30
2023-12-21T17:26:09.978Z,11.00
2023-12-21T17:28:40.640Z,12.73
2023-12-21T17:31:11.682Z,13.50
2023-12-21T17:33:42.258Z,10.38
2023-12-21T17:36:13.900Z,11.50
2023-12-21T17:38:44.359Z,13.32
2023-12-21T17:41:15.902Z,14.03
2023-12-21T17:43:47.830Z,11.05
2023-12-21T17:46:19.307Z,11.40
2023-12-21T17:51:19.856Z,13.43
2023-12-21T17:54:12.047Z,11.95
2023-12-21T17:56:42.678Z,12.70
2023-12-21T17:59:13.971Z,12.82
2023-12-21T18:04:14.564Z,11.25
2023-12-21T18:06:47.208Z,15.37
2023-12-21T18:09:17.730Z,10.73
2023-12-21T18:11:48.460Z,10.53
2023-12-21T18:14:18.976Z,10.88
2023-12-21T18:16:52.484Z,13.80
2023-12-21T18:19:24.064Z,15.98
2023-12-21T18:21:54.602Z,13.68
2023-12-21T18:24:26.856Z,12.47
2023-12-21T18:26:58.235Z,11.38
2023-12-21T18:29:29.243Z,15.35
2023-12-21T18:32:01.305Z,14.52
2023-12-21T18:34:31.884Z,13.68
2023-12-21T18:37:02.524Z,11.90
2023-12-21T18:39:33.487Z,11.95
2023-12-21T18:42:03.928Z,14.93
2023-12-21T18:44:34.590Z,16.53
2023-12-21T18:47:05.796Z,11.70
2023-12-21T18:49:36.570Z,12.05
2023-12-21T18:52:07.474Z,12.00
2023-12-21T18:54:38.203Z,13.77
2023-12-21T18:57:08.742Z,15.67
2023-12-21T18:59:39.444Z,16.20
2023-12-21T19:02:10.020Z,10.97
2023-12-21T19:04:40.753Z,14.20
2023-12-21T19:07:11.444Z,15.20
2023-12-21T19:09:42.372Z,14.20
2023-12-21T19:12:13.385Z,13.38
2023-12-21T19:14:46.271Z,11.93
2023-12-21T19:17:16.739Z,13.10
2023-12-21T19:19:47.511Z,14.40
2023-12-21T19:22:18.070Z,15.53
2023-12-21T19:24:48.476Z,11.73
2023-12-21T19:27:19.140Z,13.50
2023-12-21T19:29:49.458Z,11.40
2023-12-21T19:32:20.464Z,14.03
2023-12-21T19:34:51.098Z,13.50
2023-12-21T19:37:21.818Z,14.57
2023-12-21T19:39:52.254Z,12.80
2023-12-21T19:42:23.118Z,11.75
2023-12-21T19:44:53.567Z,12.23
2023-12-21T19:47:24.117Z,12.57
2023-12-21T19:49:54.668Z,13.77
2023-12-21T19:52:25.237Z,11.40
2023-12-21T19:54:56.000Z,15.63
2023-12-21T19:57:26.618Z,14.60
2023-12-21T19:59:58.383Z,10.60
2023-12-21T20:02:29.060Z,10.55
2023-12-21T20:04:59.653Z,12.87
2023-12-21T20:07:30.523Z,13.63
2023-12-21T20:10:01.993Z,11.43
2023-12-21T20:12:32.728Z,14.77
2023-12-21T20:15:03.258Z,14.85
2023-12-21T20:17:34.002Z,13.13
2023-12-21T20:20:04.688Z,15.07
2023-12-21T20:22:35.472Z,13.38
2023-12-21T20:25:07.895Z,12.23
2023-12-21T20:27:39.288Z,11.77
2023-12-21T20:30:10.880Z,11.55
2023-12-21T20:32:41.606Z,13.02
2023-12-21T20:35:12.200Z,12.73
2023-12-21T20:37:43.507Z,13.23
2023-12-21T20:40:14.340Z,16.17
2023-12-21T20:42:45.083Z,13.27
2023-12-21T20:45:15.956Z,16.30
2023-12-21T20:47:47.329Z,13.85
2023-12-21T20:52:51.219Z,19.30
2023-12-21T20:55:23.055Z,16.10
2023-12-21T20:57:54.072Z,19.63
2023-12-21T21:00:24.715Z,17.58
2023-12-21T21:02:57.373Z,16.27
2023-12-21T21:05:29.486Z,18.17
2023-12-21T21:08:00.116Z,18.05
2023-12-21T21:10:30.728Z,17.27
2023-12-21T21:13:04.748Z,15.33
2023-12-21T21:15:35.765Z,19.35
2023-12-21T21:18:06.494Z,19.55
2023-12-21T21:20:37.002Z,16.93
2023-12-21T21:23:07.702Z,15.45
2023-12-21T21:25:38.281Z,16.10
2023-12-21T21:28:09.139Z,17.17
2023-12-21T21:30:56.391Z,18.33
2023-12-21T21:33:30.508Z,18.60
2023-12-21T21:36:01.041Z,14.90
2023-12-21T21:38:31.667Z,17.10
2023-12-21T21:41:04.259Z,16.30
2023-12-21T21:43:35.939Z,15.63
2023-12-21T21:46:07.893Z,17.13
2023-12-21T21:48:40.835Z,16.58
2023-12-21T21:51:14.232Z,16.65
2023-12-21T21:53:47.710Z,14.48
2023-12-21T21:56:22.121Z,17.47
2023-12-21T21:58:54.206Z,15.70
2023-12-21T22:01:24.710Z,17.35
2023-12-21T22:03:57.793Z,17.77
2023-12-21T22:06:31.823Z,14.95
2023-12-21T22:09:02.449Z,14.48
2023-12-21T22:11:33.452Z,14.73
2023-12-21T22:14:05.201Z,19.52
2023-12-21T22:16:35.798Z,14.02
2023-12-21T22:19:08.495Z,17.57
2023-12-21T22:21:39.113Z,17.05
2023-12-21T22:24:09.702Z,16.23
2023-12-21T22:26:40.366Z,16.73
2023-12-21T22:29:11.030Z,20.47
2023-12-21T22:31:42.332Z,20.60
2023-12-21T22:34:12.916Z,14.15
2023-12-21T22:36:43.431Z,16.97
2023-12-21T22:39:13.976Z,13.17
2023-12-21T22:41:44.443Z,14.73
2023-12-21T22:44:15.346Z,12.20
2023-12-21T22:46:46.547Z,13.63
2023-12-21T22:49:16.961Z,15.55
2023-12-21T22:54:11.904Z,12.50
2023-12-21T22:56:42.481Z,14.23
2023-12-21T22:59:13.606Z,14.27
2023-12-21T23:01:44.163Z,14.63
2023-12-21T23:04:14.901Z,19.52
2023-12-21T23:06:47.056Z,13.77
2023-12-21T23:09:18.520Z,15.32
2023-12-21T23:14:18.742Z,11.35
2023-12-21T23:16:50.508Z,14.80
2023-12-21T23:19:21.053Z,11.13
2023-12-21T23:21:51.796Z,15.53
2023-12-21T23:24:22.269Z,12.50
2023-12-21T23:26:53.001Z,13.75
2023-12-21T23:29:25.851Z,9.93
2023-12-21T23:31:56.531Z,10.73
2023-12-21T23:34:27.116Z,9.33
2023-12-21T23:37:00.733Z,10.47
2023-12-21T23:39:31.207Z,8.73
2023-12-21T23:42:01.686Z,10.23
2023-12-21T23:44:32.833Z,14.03
2023-12-21T23:47:03.463Z,8.85
2023-12-21T23:49:34.123Z,7.70
2023-12-21T23:52:08.120Z,11.13
2023-12-21T23:54:38.627Z,7.20
2023-12-21T23:57:09.214Z,10.83
2023-12-21T23:59:39.667Z,7.53
